createdAt,value
2018-07-23T00:02:28.904Z,97082.00
2018-07-23T00:05:02.349Z,97084.39
2018-07-23T00:07:33.433Z,97081.20
2018-07-23T00:10:04.548Z,97084.05
2018-07-23T00:15:15.120Z,97084.89
2018-07-23T00:17:47.084Z,97080.08
2018-07-23T00:20:19.708Z,97079.84
2018-07-23T00:22:51.539Z,97076.35
2018-07-23T00:25:21.663Z,97078.48
2018-07-23T00:27:53.955Z,97078.23
2018-07-23T00:30:25.790Z,97071.24
2018-07-23T00:32:56.678Z,97074.47
2018-07-23T00:35:26.285Z,97070.89
2018-07-23T00:37:55.731Z,97069.91
2018-07-23T00:40:25.792Z,97067.77
2018-07-23T00:45:30.482Z,97070.47
2018-07-23T00:48:00.348Z,97064.84
2018-07-23T00:53:05.570Z,97052.24
2018-07-23T00:55:35.476Z,97053.06
2018-07-23T01:00:43.228Z,97056.00
2018-07-23T01:03:13.114Z,97053.88
2018-07-23T01:05:43.033Z,97048.25
2018-07-23T01:08:13.132Z,97051.18
2018-07-23T01:10:43.969Z,97057.88
2018-07-23T01:13:13.686Z,97049.59
2018-07-23T01:15:43.708Z,97049.02
2018-07-23T01:18:13.695Z,97050.06
2018-07-23T01:20:44.336Z,97052.78
2018-07-23T01:23:14.257Z,97046.34
2018-07-23T01:25:44.777Z,97048.22
2018-07-23T01:28:14.541Z,97046.63
2018-07-23T01:30:44.290Z,97045.80
2018-07-23T01:33:15.865Z,97049.81
2018-07-23T01:35:45.259Z,97051.44
2018-07-23T01:38:15.451Z,97052.25
2018-07-23T01:40:45.589Z,97051.44
2018-07-23T01:45:53.958Z,97040.45
2018-07-23T01:48:23.622Z,97043.95
2018-07-23T01:50:53.785Z,97039.94
2018-07-23T01:53:23.714Z,97043.69
2018-07-23T01:55:55.180Z,97038.34
2018-07-23T01:58:39.704Z,97040.73
2018-07-23T02:01:12.422Z,97033.25
2018-07-23T02:03:42.663Z,97039.93
2018-07-23T02:06:12.509Z,97035.86
2018-07-23T02:08:42.341Z,97035.81
2018-07-23T02:11:12.401Z,97035.56
2018-07-23T02:13:42.348Z,97039.64
2018-07-23T02:16:12.081Z,97037.42
2018-07-23T02:18:41.857Z,97046.81
2018-07-23T02:21:13.898Z,97041.45
2018-07-23T02:23:44.759Z,97039.62
2018-07-23T02:26:15.018Z,97029.19
2018-07-23T02:28:45.347Z,97037.70
2018-07-23T02:31:15.156Z,97036.89
2018-07-23T02:33:45.173Z,97037.40
2018-07-23T02:36:15.197Z,97031.22
2018-07-23T02:38:45.176Z,97031.01
2018-07-23T02:41:16.272Z,97038.72
2018-07-23T02:43:46.113Z,97035.16
2018-07-23T02:46:16.055Z,97038.53
2018-07-23T02:48:45.790Z,97038.63
2018-07-23T02:51:16.115Z,97039.97
2018-07-23T02:53:45.843Z,97028.87
2018-07-23T02:56:17.146Z,97032.89
2018-07-23T02:58:46.951Z,97035.30
2018-07-23T03:01:18.614Z,97041.55
2018-07-23T03:03:48.604Z,97038.34
2018-07-23T03:06:18.182Z,97039.69
2018-07-23T03:08:47.888Z,97038.88
2018-07-23T03:11:18.019Z,97036.45
2018-07-23T03:13:48.083Z,97032.94
2018-07-23T03:16:18.577Z,97032.97
2018-07-23T03:18:48.373Z,97036.20
2018-07-23T03:21:21.172Z,97033.24
2018-07-23T03:23:56.197Z,97030.76
2018-07-23T03:29:16.014Z,97045.92
2018-07-23T03:31:51.414Z,97040.05
2018-07-23T03:34:27.448Z,97040.16
2018-07-23T03:37:04.216Z,97042.55
2018-07-23T03:39:48.014Z,97046.76
2018-07-23T03:42:24.098Z,97046.54
2018-07-23T03:45:07.118Z,97031.91
2018-07-23T03:47:44.672Z,97033.20
2018-07-23T03:50:19.249Z,97030.50
2018-07-23T03:52:58.026Z,97020.31
2018-07-23T03:55:37.819Z,97029.59
2018-07-23T04:00:59.081Z,97034.73
2018-07-23T04:03:41.359Z,97037.36
2018-07-23T04:06:16.146Z,97037.34
2018-07-23T04:08:57.843Z,97042.41
2018-07-23T04:11:36.780Z,97045.40
2018-07-23T04:14:34.815Z,97049.50
2018-07-23T04:17:14.390Z,97046.48
2018-07-23T04:19:55.688Z,97053.56
2018-07-23T04:22:31.201Z,97048.92
2018-07-23T04:25:07.507Z,97046.23
2018-07-23T04:27:43.639Z,97044.63
2018-07-23T04:33:08.638Z,97040.33
2018-07-23T04:35:45.075Z,97040.05
2018-07-23T04:41:05.775Z,97035.27
2018-07-23T04:43:44.511Z,97039.14
2018-07-23T04:46:19.896Z,97049.06
2018-07-23T04:48:57.274Z,97049.48
2018-07-23T04:51:34.365Z,97043.73
2018-07-23T04:54:11.147Z,97036.55
2018-07-23T04:59:35.857Z,97040.42
2018-07-23T05:07:41.478Z,97051.77
2018-07-23T05:10:18.273Z,97054.27
2018-07-23T05:12:58.192Z,97062.19
2018-07-23T05:15:38.952Z,97058.77
2018-07-23T05:18:17.637Z,97064.64
2018-07-23T05:20:54.576Z,97067.07
2018-07-23T05:23:34.390Z,97058.23
2018-07-23T05:26:12.123Z,97060.17
2018-07-23T05:28:50.974Z,97062.53
2018-07-23T05:31:29.021Z,97055.62
2018-07-23T05:36:50.286Z,97059.70
2018-07-23T05:39:31.871Z,97060.00
2018-07-23T05:42:08.609Z,97063.20
2018-07-23T05:44:48.907Z,97050.09
2018-07-23T05:47:28.548Z,97055.70
2018-07-23T05:50:06.655Z,97049.75
2018-07-23T05:52:44.920Z,97056.44
2018-07-23T05:55:23.467Z,97053.03
2018-07-23T05:58:06.673Z,97053.06
2018-07-23T06:03:27.440Z,97049.58
2018-07-23T06:06:04.410Z,97050.91
2018-07-23T06:08:43.679Z,97058.39
2018-07-23T06:11:16.416Z,97051.45
2018-07-23T06:13:55.732Z,97050.90
2018-07-23T06:16:33.421Z,97050.13
2018-07-23T06:19:09.536Z,97048.25
2018-07-23T06:21:50.336Z,97052.00
2018-07-23T06:24:28.399Z,97056.52
2018-07-23T06:27:08.256Z,97060.30
2018-07-23T06:29:50.018Z,97061.91
2018-07-23T06:32:29.281Z,97057.09
2018-07-23T06:35:09.119Z,97058.94
2018-07-23T06:37:45.157Z,97062.95
2018-07-23T06:40:26.860Z,97069.37
2018-07-23T06:43:02.244Z,97072.08
2018-07-23T06:45:39.517Z,97067.22
2018-07-23T06:48:21.197Z,97069.66
2018-07-23T06:53:37.742Z,97087.86
2018-07-23T06:56:15.862Z,97087.28
2018-07-23T06:58:55.989Z,97087.27
2018-07-23T07:01:32.258Z,97088.63
2018-07-23T07:04:09.644Z,97088.66
2018-07-23T07:06:46.074Z,97085.73
2018-07-23T07:09:30.060Z,97085.14
2018-07-23T07:12:06.897Z,97081.11
2018-07-23T07:14:43.479Z,97079.22
2018-07-23T07:17:23.360Z,97079.77
2018-07-23T07:19:58.841Z,97081.41
2018-07-23T07:22:36.205Z,97086.73
2018-07-23T07:25:12.157Z,97090.80
2018-07-23T07:27:52.647Z,97093.77
2018-07-23T07:30:35.028Z,97099.67
2018-07-23T07:33:15.618Z,97101.27
2018-07-23T07:35:55.261Z,97102.86
2018-07-23T07:38:34.281Z,97106.05
2018-07-23T07:43:55.294Z,97111.34
2018-07-23T07:46:36.868Z,97114.87
2018-07-23T07:49:13.154Z,97100.28
2018-07-23T07:51:52.984Z,97105.98
2018-07-23T07:54:31.104Z,97106.48
2018-07-23T07:57:15.861Z,97104.09
2018-07-23T07:59:56.526Z,97098.92
2018-07-23T08:02:36.186Z,97107.80
2018-07-23T08:05:15.658Z,97114.23
2018-07-23T08:07:52.910Z,97111.22
2018-07-23T08:10:28.269Z,97120.84
2018-07-23T08:13:05.659Z,97126.54
2018-07-23T08:15:42.629Z,97129.18
2018-07-23T08:18:18.381Z,97132.60
2018-07-23T08:20:55.175Z,97136.02
2018-07-23T08:23:36.919Z,97135.77
2018-07-23T08:26:17.074Z,97146.56
2018-07-23T08:28:51.990Z,97141.80
2018-07-23T08:31:40.154Z,97141.20
2018-07-23T08:34:20.026Z,97163.86
2018-07-23T08:36:56.838Z,97153.64
2018-07-23T08:39:33.804Z,97153.67
2018-07-23T08:42:13.879Z,97165.08
2018-07-23T08:44:53.325Z,97156.97
2018-07-23T08:47:32.558Z,97165.51
2018-07-23T08:52:56.749Z,97175.69
2018-07-23T08:55:33.168Z,97189.58
2018-07-23T08:58:11.380Z,97186.48
2018-07-23T09:00:48.429Z,97184.69
2018-07-23T09:03:31.395Z,97184.97
2018-07-23T09:06:14.312Z,97186.09
2018-07-23T09:08:55.397Z,97190.42
2018-07-23T09:11:41.332Z,97202.52
2018-07-23T09:14:21.015Z,97198.26
2018-07-23T09:17:04.788Z,97188.31
2018-07-23T09:19:42.678Z,97202.13
2018-07-23T09:22:31.647Z,97192.23
2018-07-23T09:25:08.365Z,97199.74
2018-07-23T09:27:49.076Z,97205.58
2018-07-23T09:30:34.574Z,97204.25
2018-07-23T09:33:22.031Z,97200.48
2018-07-23T09:36:04.606Z,97192.52
2018-07-23T09:38:44.691Z,97200.91
2018-07-23T09:41:24.358Z,97199.81
2018-07-23T09:44:07.651Z,97195.30
2018-07-23T09:46:52.279Z,97208.16
2018-07-23T09:49:35.867Z,97209.50
2018-07-23T09:52:27.613Z,97211.35
2018-07-23T09:55:03.799Z,97201.96
2018-07-23T09:57:44.240Z,97205.76
2018-07-23T10:00:25.675Z,97194.78
2018-07-23T10:05:57.354Z,97196.92
2018-07-23T10:14:12.926Z,97200.14
2018-07-23T10:16:52.303Z,97201.45
2018-07-23T10:19:38.606Z,97196.11
2018-07-23T10:22:25.777Z,97196.91
2018-07-23T10:25:04.647Z,97192.07
2018-07-23T10:27:45.417Z,97193.91
2018-07-23T10:30:25.976Z,97191.53
2018-07-23T10:33:08.404Z,97191.27
2018-07-23T10:35:45.888Z,97190.44
2018-07-23T10:38:31.854Z,97198.11
2018-07-23T10:41:18.479Z,97199.25
2018-07-23T10:44:01.946Z,97213.72
2018-07-23T10:46:41.414Z,97222.98
2018-07-23T10:49:23.065Z,97230.80
2018-07-23T10:52:03.865Z,97254.95
2018-07-23T10:54:43.777Z,97245.30
2018-07-23T10:57:26.773Z,97252.73
2018-07-23T11:00:03.873Z,97242.50
2018-07-23T11:02:46.190Z,97255.86
2018-07-23T11:05:31.783Z,97248.09
2018-07-23T11:08:16.803Z,97252.92
2018-07-23T11:10:54.558Z,97265.20
2018-07-23T11:13:36.142Z,97268.12
2018-07-23T11:16:14.336Z,97274.39
2018-07-23T11:18:50.793Z,97275.72
2018-07-23T11:21:37.098Z,97280.05
2018-07-23T11:24:19.862Z,97281.08
2018-07-23T11:27:00.617Z,97287.16
2018-07-23T11:29:39.253Z,97284.12
2018-07-23T11:32:20.061Z,97292.50
2018-07-23T11:35:07.315Z,97296.07
2018-07-23T11:37:48.471Z,97299.20
2018-07-23T11:40:21.967Z,97304.61
2018-07-23T11:43:03.856Z,97300.81
2018-07-23T11:45:44.337Z,97306.64
2018-07-23T11:48:32.095Z,97302.40
2018-07-23T11:53:56.601Z,97303.92
2018-07-23T11:56:36.230Z,97301.67
2018-07-23T11:59:16.119Z,97304.63
2018-07-23T12:02:02.443Z,97299.79
2018-07-23T12:04:40.884Z,97302.80
2018-07-23T12:07:27.019Z,97299.88
2018-07-23T12:10:08.342Z,97307.12
2018-07-23T12:12:43.142Z,97308.70
2018-07-23T12:15:18.995Z,97312.08
2018-07-23T12:17:59.571Z,97314.05
2018-07-23T12:20:45.127Z,97308.47
2018-07-23T12:23:29.881Z,97309.16
2018-07-23T12:26:15.821Z,97306.08
2018-07-23T12:28:59.724Z,97304.75
2018-07-23T12:34:25.850Z,97294.55
2018-07-23T12:37:03.954Z,97296.80
2018-07-23T12:39:41.308Z,97294.51
2018-07-23T12:42:26.731Z,97291.91
2018-07-23T12:45:07.805Z,97288.45
2018-07-23T12:47:45.846Z,97283.64
2018-07-23T12:53:10.595Z,97278.30
2018-07-23T12:55:57.221Z,97273.25
2018-07-23T12:58:36.077Z,97274.30
2018-07-23T13:01:09.833Z,97268.12
2018-07-23T13:03:51.855Z,97272.14
2018-07-23T13:06:35.314Z,97277.27
2018-07-23T13:09:17.942Z,97275.87
2018-07-23T13:12:03.005Z,97270.26
2018-07-23T13:14:42.766Z,97262.50
2018-07-23T13:17:21.798Z,97257.92
2018-07-23T13:19:58.611Z,97256.36
2018-07-23T13:22:39.367Z,97250.44
2018-07-23T13:25:21.336Z,97247.80
2018-07-23T13:28:01.480Z,97248.05
2018-07-23T13:30:39.074Z,97243.52
2018-07-23T13:33:17.693Z,97246.95
2018-07-23T13:35:54.792Z,97242.62
2018-07-23T13:38:32.175Z,97239.37
2018-07-23T13:41:13.461Z,97243.12
2018-07-23T13:43:50.769Z,97233.81
2018-07-23T13:46:30.902Z,97232.01
2018-07-23T13:49:15.428Z,97225.54
2018-07-23T13:51:57.168Z,97226.92
2018-07-23T13:54:41.679Z,97223.27
2018-07-23T13:57:22.994Z,97220.96
2018-07-23T14:00:06.205Z,97223.47
2018-07-23T14:02:42.180Z,97213.78
2018-07-23T14:08:12.179Z,97210.64
2018-07-23T14:10:51.238Z,97215.16
2018-07-23T14:13:32.125Z,97210.70
2018-07-23T14:16:14.566Z,97205.00
2018-07-23T14:18:51.484Z,97207.61
2018-07-23T14:21:32.959Z,97198.33
2018-07-23T14:24:16.019Z,97195.98
2018-07-23T14:26:53.303Z,97183.05
2018-07-23T14:29:31.702Z,97185.32
2018-07-23T14:32:12.414Z,97177.22
2018-07-23T14:34:50.201Z,97176.73
2018-07-23T14:37:37.577Z,97180.63
2018-07-23T14:40:15.651Z,97171.28
2018-07-23T14:42:55.335Z,97163.50
2018-07-23T14:45:29.717Z,97164.69
2018-07-23T14:48:05.339Z,97163.45
2018-07-23T14:50:44.364Z,97161.75
2018-07-23T14:56:01.992Z,97161.13
2018-07-23T15:01:19.248Z,97161.75
2018-07-23T15:03:59.409Z,97153.48
2018-07-23T15:06:48.727Z,97141.74
2018-07-23T15:09:25.728Z,97143.81
2018-07-23T15:12:10.199Z,97143.09
2018-07-23T15:14:48.571Z,97141.64
2018-07-23T15:20:22.203Z,97132.42
2018-07-23T15:23:01.381Z,97132.51
2018-07-23T15:28:23.832Z,97131.18
2018-07-23T15:31:05.135Z,97126.02
2018-07-23T15:33:48.607Z,97132.16
2018-07-23T15:36:35.697Z,97130.88
2018-07-23T15:39:18.829Z,97134.45
2018-07-23T15:42:00.613Z,97131.67
2018-07-23T15:44:40.411Z,97126.12
2018-07-23T15:47:26.949Z,97126.44
2018-07-23T15:50:05.678Z,97126.87
2018-07-23T15:52:43.463Z,97124.48
2018-07-23T15:55:29.016Z,97121.09
2018-07-23T15:58:06.704Z,97124.48
2018-07-23T16:00:44.860Z,97126.46
2018-07-23T16:03:25.702Z,97128.03
2018-07-23T16:06:08.728Z,97132.20
2018-07-23T16:08:47.801Z,97131.53
2018-07-23T16:11:29.718Z,97130.84
2018-07-23T16:14:08.854Z,97135.83
2018-07-23T16:16:51.423Z,97127.09
2018-07-23T16:19:32.747Z,97129.36
2018-07-23T16:22:24.394Z,97120.53
2018-07-23T16:25:03.611Z,97128.66
2018-07-23T16:27:43.794Z,97128.16
2018-07-23T16:30:19.323Z,97131.50
2018-07-23T16:32:58.839Z,97130.69
2018-07-23T16:35:35.831Z,97137.44
2018-07-23T16:38:19.021Z,97134.90
2018-07-23T16:41:03.120Z,97143.02
2018-07-23T16:43:48.077Z,97147.98
2018-07-23T16:46:26.966Z,97145.53
2018-07-23T16:49:16.686Z,97144.98
2018-07-23T16:51:58.939Z,97142.39
2018-07-23T16:54:38.512Z,97147.76
2018-07-23T16:57:21.835Z,97146.00
2018-07-23T17:00:00.793Z,97144.92
2018-07-23T17:02:42.115Z,97145.53
2018-07-23T17:05:22.629Z,97149.05
2018-07-23T17:08:06.146Z,97148.39
2018-07-23T17:10:43.135Z,97151.22
2018-07-23T17:13:23.694Z,97148.37
2018-07-23T17:16:00.370Z,97149.09
2018-07-23T17:18:41.475Z,97144.01
2018-07-23T17:21:23.540Z,97145.21
2018-07-23T17:24:01.601Z,97142.62
2018-07-23T17:26:39.341Z,97144.80
2018-07-23T17:29:21.443Z,97144.93
2018-07-23T17:32:05.448Z,97137.78
2018-07-23T17:34:47.052Z,97144.21
2018-07-23T17:37:28.479Z,97143.06
2018-07-23T17:40:09.741Z,97140.09
2018-07-23T17:42:53.597Z,97140.55
2018-07-23T17:45:35.159Z,97148.11
2018-07-23T17:48:15.058Z,97148.77
2018-07-23T17:50:55.688Z,97149.78
2018-07-23T17:53:35.287Z,97144.61
2018-07-23T17:56:16.131Z,97150.59
2018-07-23T17:58:59.922Z,97151.00
2018-07-23T18:01:44.318Z,97160.83
2018-07-23T18:04:25.140Z,97164.39
2018-07-23T18:07:10.778Z,97163.16
2018-07-23T18:09:48.386Z,97165.23
2018-07-23T18:12:35.084Z,97163.41
2018-07-23T18:15:19.638Z,97164.15
2018-07-23T18:17:59.762Z,97165.41
2018-07-23T18:20:44.860Z,97164.38
2018-07-23T18:23:29.443Z,97172.08
2018-07-23T18:26:08.855Z,97166.41
2018-07-23T18:28:52.639Z,97176.64
2018-07-23T18:34:16.179Z,97188.64
2018-07-23T18:36:57.505Z,97192.52
2018-07-23T18:39:36.826Z,97192.67
2018-07-23T18:42:22.784Z,97196.20
2018-07-23T18:47:55.018Z,97204.70
2018-07-23T18:50:39.718Z,97205.56
2018-07-23T18:53:30.322Z,97212.42
2018-07-23T18:56:10.781Z,97221.10
2018-07-23T18:58:55.169Z,97223.09
2018-07-23T19:01:43.536Z,97229.34
2018-07-23T19:04:25.655Z,97246.52
2018-07-23T19:07:06.810Z,97244.38
2018-07-23T19:12:29.916Z,97264.60
2018-07-23T19:15:13.532Z,97260.31
2018-07-23T19:17:52.135Z,97262.70
2018-07-23T19:20:31.795Z,97273.37
2018-07-23T19:23:09.632Z,97275.03
2018-07-23T19:25:56.511Z,97283.40
2018-07-23T19:28:36.737Z,97283.14
2018-07-23T19:31:11.589Z,97282.64
2018-07-23T19:33:51.993Z,97280.25
2018-07-23T19:36:28.313Z,97284.59
2018-07-23T19:41:50.034Z,97304.64
2018-07-23T19:44:29.862Z,97303.02
2018-07-23T19:47:08.281Z,97320.89
2018-07-23T19:49:55.609Z,97307.02
2018-07-23T19:52:37.380Z,97309.17
2018-07-23T19:55:16.858Z,97314.55
2018-07-23T19:57:59.600Z,97319.61
2018-07-23T20:00:46.588Z,97314.59
2018-07-23T20:03:37.629Z,97319.64
2018-07-23T20:06:27.553Z,97318.02
2018-07-23T20:09:11.063Z,97318.05
2018-07-23T20:11:54.034Z,97318.58
2018-07-23T20:14:41.584Z,97326.77
2018-07-23T20:20:14.419Z,97322.48
2018-07-23T20:22:57.576Z,97319.02
2018-07-23T20:25:38.454Z,97316.63
2018-07-23T20:28:19.885Z,97313.95
2018-07-23T20:31:04.663Z,97306.55
2018-07-23T20:36:30.714Z,97307.80
2018-07-23T20:39:13.341Z,97308.81
2018-07-23T20:41:59.215Z,97313.00
2018-07-23T20:44:38.412Z,97307.55
2018-07-23T20:47:27.067Z,97313.69
2018-07-23T20:50:12.037Z,97308.59
2018-07-23T20:53:05.536Z,97316.25
2018-07-23T20:55:57.987Z,97313.62
2018-07-23T20:58:40.694Z,97321.84
2018-07-23T21:01:24.717Z,97327.55
2018-07-23T21:04:14.472Z,97331.11
2018-07-23T21:06:56.193Z,97332.27
2018-07-23T21:09:43.760Z,97339.31
2018-07-23T21:12:25.985Z,97346.02
2018-07-23T21:15:08.498Z,97338.25
2018-07-23T21:17:58.696Z,97355.16
2018-07-23T21:20:49.058Z,97358.31
2018-07-23T21:23:36.612Z,97356.11
2018-07-23T21:26:24.254Z,97358.59
2018-07-23T21:29:08.949Z,97363.16
2018-07-23T21:31:54.402Z,97367.73
2018-07-23T21:34:39.810Z,97373.68
2018-07-23T21:37:28.977Z,97366.69
2018-07-23T21:40:06.387Z,97362.89
2018-07-23T21:42:56.632Z,97360.84
2018-07-23T21:48:36.408Z,97366.77
2018-07-23T21:51:25.825Z,97362.06
2018-07-23T21:54:20.392Z,97365.97
2018-07-23T21:57:13.556Z,97369.17
2018-07-23T21:59:53.866Z,97364.39
2018-07-23T22:02:47.698Z,97370.24
2018-07-23T22:05:40.044Z,97367.65
2018-07-23T22:08:24.789Z,97374.52
2018-07-23T22:11:12.058Z,97379.20
2018-07-23T22:13:59.260Z,97381.80
2018-07-23T22:16:49.893Z,97382.59
2018-07-23T22:19:37.200Z,97374.08
2018-07-23T22:22:23.669Z,97375.44
2018-07-23T22:25:06.872Z,97377.36
2018-07-23T22:27:53.964Z,97372.13
2018-07-23T22:30:36.918Z,97371.84
2018-07-23T22:33:24.852Z,97365.20
2018-07-23T22:36:11.066Z,97371.91
2018-07-23T22:39:03.062Z,97371.06
2018-07-23T22:41:53.389Z,97380.20
2018-07-23T22:44:41.484Z,97380.30
2018-07-23T22:47:38.527Z,97371.38
2018-07-23T22:50:24.062Z,97378.20
2018-07-23T22:53:15.559Z,97375.48
2018-07-23T22:56:01.851Z,97370.27
2018-07-23T22:58:50.232Z,97363.89
2018-07-23T23:01:39.104Z,97360.95
2018-07-23T23:04:25.684Z,97367.83
2018-07-23T23:07:13.884Z,97366.37
2018-07-23T23:10:03.448Z,97361.95
2018-07-23T23:12:54.652Z,97362.17
2018-07-23T23:15:41.928Z,97351.81
2018-07-23T23:18:35.208Z,97349.99
2018-07-23T23:21:24.380Z,97354.88
2018-07-23T23:24:06.729Z,97353.48
2018-07-23T23:26:56.059Z,97362.14
2018-07-23T23:29:46.147Z,97360.30
2018-07-23T23:32:39.467Z,97360.52
2018-07-23T23:35:25.298Z,97362.66
2018-07-23T23:38:17.555Z,97348.31
2018-07-23T23:41:01.456Z,97355.84
2018-07-23T23:46:50.324Z,97354.11
2018-07-23T23:49:35.527Z,97357.23
2018-07-23T23:52:23.715Z,97358.84
2018-07-23T23:55:07.444Z,97361.92
2018-07-23T23:57:50.496Z,97360.80
